Time;durP1;ratioP1;P1;durP2;ratioP2;P2;SDS_P1;SDS_P2;PMS_P1;PMS_P2;Temp;Humidity;BMP_temperature;BMP_pressure;BME280_temperature;BME280_humidity;BME280_pressure;Samples;Min_cycle;Max_cycle;Signal;HPM_P1;HPM_P2
2023/08/08 00:01:00;;;;;;;2.38;0.30;;;15.20;99.90;;;;;;5035833;28;20185;-88
2023/08/08 00:03:28;;;;;;;0.20;0.20;;;15.00;99.90;;;;;;5024413;28;20189;-86
2023/08/08 00:05:55;;;;;;;0.20;0.20;;;15.10;99.90;;;;;;5032437;28;20629;-86
2023/08/08 00:08:23;;;;;;;0.20;0.20;;;15.00;99.90;;;;;;5034285;28;20237;-87
2023/08/08 00:10:51;;;;;;;0.55;0.22;;;14.90;99.90;;;;;;5029866;28;20182;-89
2023/08/08 00:13:19;;;;;;;1.75;0.40;;;14.90;99.90;;;;;;5011282;28;20190;-88
2023/08/08 00:15:46;;;;;;;0.95;0.30;;;14.80;99.90;;;;;;5034670;28;20194;-86
2023/08/08 00:18:14;;;;;;;0.20;0.20;;;14.70;99.90;;;;;;5037303;28;20570;-88
2023/08/08 00:20:41;;;;;;;1.15;0.38;;;14.60;99.90;;;;;;5039694;28;20230;-87
2023/08/08 00:23:09;;;;;;;0.30;0.30;;;14.70;99.90;;;;;;5033078;28;20230;-89
2023/08/08 00:25:37;;;;;;;0.40;0.30;;;14.80;99.90;;;;;;5039474;28;20682;-85
2023/08/08 00:28:04;;;;;;;0.95;0.20;;;14.80;99.90;;;;;;5035328;28;20206;-88
2023/08/08 00:30:32;;;;;;;1.85;0.25;;;14.70;99.90;;;;;;5041292;28;20730;-84
2023/08/08 00:32:59;;;;;;;0.60;0.35;;;14.60;99.90;;;;;;5029816;28;20186;-87
2023/08/08 00:35:27;;;;;;;6.40;0.70;;;14.60;99.90;;;;;;5030301;28;20579;-86
2023/08/08 00:37:54;;;;;;;0.75;0.40;;;14.60;99.90;;;;;;5030776;28;20186;-87
2023/08/08 00:40:21;;;;;;;0.98;0.43;;;14.50;99.90;;;;;;5026894;28;20938;-86
2023/08/08 00:42:49;;;;;;;1.13;0.50;;;14.50;99.90;;;;;;5032419;28;22218;-85
2023/08/08 00:45:17;;;;;;;2.58;0.70;;;14.60;99.90;;;;;;5034066;28;20292;-85
2023/08/08 00:47:45;;;;;;;2.22;0.60;;;14.40;99.90;;;;;;5029596;28;20624;-86
2023/08/08 00:50:14;;;;;;;0.98;0.60;;;14.50;99.90;;;;;;5031585;28;20657;-87
2023/08/08 00:52:43;;;;;;;1.17;0.57;;;14.30;99.90;;;;;;5023290;28;20186;-85
2023/08/08 00:55:11;;;;;;;1.20;0.55;;;14.40;99.90;;;;;;5014796;28;20220;-86
2023/08/08 00:57:39;;;;;;;3.28;0.70;;;14.40;99.90;;;;;;5044353;28;20206;-85
2023/08/08 01:00:11;;;;;;;3.17;0.93;;;14.30;99.90;;;;;;5030929;28;20205;-87
2023/08/08 01:02:39;;;;;;;1.30;0.65;;;14.40;99.90;;;;;;5025498;28;20194;-85
2023/08/08 01:05:07;;;;;;;1.70;0.60;;;14.60;99.90;;;;;;5014836;28;20205;-86
2023/08/08 01:07:57;;;;;;;0.77;0.52;;;14.50;99.90;;;;;;5016217;28;20635;-87
2023/08/08 01:10:43;;;;;;;3.40;0.70;;;14.40;99.90;;;;;;5021888;28;20264;-87
2023/08/08 01:13:32;;;;;;;3.15;0.90;;;14.50;99.90;;;;;;5022991;28;20802;-85
2023/08/08 01:16:00;;;;;;;1.25;0.70;;;14.60;99.90;;;;;;5016534;28;20185;-88
2023/08/08 01:18:30;;;;;;;2.17;0.63;;;14.70;99.90;;;;;;5031388;28;20197;-86
2023/08/08 01:20:58;;;;;;;0.45;0.45;;;14.60;99.90;;;;;;5028744;28;20692;-87
2023/08/08 01:23:28;;;;;;;0.68;0.50;;;14.60;99.90;;;;;;5026833;28;20227;-85
2023/08/08 01:25:58;;;;;;;1.13;0.63;;;14.50;99.90;;;;;;5025111;28;20205;-87
2023/08/08 01:28:26;;;;;;;0.60;0.60;;;14.50;99.90;;;;;;5018621;28;20228;-86
2023/08/08 01:30:54;;;;;;;1.27;0.50;;;14.60;99.90;;;;;;5033550;28;20194;-87
2023/08/08 01:33:22;;;;;;;0.95;0.40;;;14.60;99.90;;;;;;5037582;28;20188;-84
2023/08/08 01:36:20;;;;;;;0.60;0.40;;;14.30;99.90;;;;;;5028576;28;20276;-86
2023/08/08 01:38:51;;;;;;;0.73;0.57;;;14.50;99.90;;;;;;5021738;28;20683;-86
2023/08/08 01:41:21;;;;;;;1.08;0.50;;;14.40;99.90;;;;;;5031435;28;20753;-86
2023/08/08 01:43:50;;;;;;;0.40;0.40;;;14.40;99.90;;;;;;5032173;28;20193;-86
2023/08/08 01:46:17;;;;;;;0.95;0.43;;;14.30;99.90;;;;;;5017630;28;20852;-85
2023/08/08 01:48:46;;;;;;;0.35;0.35;;;14.30;99.90;;;;;;5032037;28;20683;-87
2023/08/08 01:51:15;;;;;;;0.68;0.30;;;14.50;99.90;;;;;;5032533;28;20205;-87
2023/08/08 01:53:42;;;;;;;0.60;0.35;;;14.50;99.90;;;;;;5030448;28;20198;-87
2023/08/08 01:56:10;;;;;;;1.50;0.30;;;14.60;99.90;;;;;;5018240;28;20213;-86
2023/08/08 01:58:38;;;;;;;0.95;0.40;;;14.60;99.90;;;;;;5033448;28;20216;-87
2023/08/08 02:01:05;;;;;;;0.43;0.40;;;14.40;99.90;;;;;;5013285;28;20691;-85
2023/08/08 02:03:33;;;;;;;2.40;0.50;;;14.50;99.90;;;;;;5027919;28;20189;-86
2023/08/08 02:06:01;;;;;;;0.70;0.45;;;14.50;99.90;;;;;;5030221;28;20196;-87
2023/08/08 02:08:28;;;;;;;2.67;0.50;;;14.30;99.90;;;;;;5032751;28;20282;-86
2023/08/08 02:10:56;;;;;;;1.85;0.40;;;14.30;99.90;;;;;;5030206;28;20182;-87
2023/08/08 02:13:23;;;;;;;2.05;0.50;;;14.30;99.90;;;;;;5032047;28;20190;-85
2023/08/08 02:15:52;;;;;;;1.65;0.45;;;14.30;99.90;;;;;;5025221;28;20186;-85
2023/08/08 02:18:20;;;;;;;0.88;0.57;;;14.30;99.90;;;;;;5047476;28;20242;-87
2023/08/08 02:20:48;;;;;;;1.58;0.50;;;14.30;99.90;;;;;;5031684;28;20317;-86
2023/08/08 02:23:15;;;;;;;1.35;0.52;;;14.30;99.90;;;;;;5007724;28;20234;-86
2023/08/08 02:25:43;;;;;;;1.20;0.50;;;14.10;99.90;;;;;;5015906;28;20194;-86
2023/08/08 02:28:10;;;;;;;1.33;0.47;;;14.00;99.90;;;;;;5029745;28;20209;-86
2023/08/08 02:30:38;;;;;;;1.10;0.50;;;14.10;99.90;;;;;;5031434;28;20200;-87
2023/08/08 02:33:09;;;;;;;1.55;0.60;;;14.30;99.90;;;;;;5032852;28;20193;-86
2023/08/08 02:35:37;;;;;;;0.80;0.60;;;14.30;99.90;;;;;;5029822;28;20875;-86
2023/08/08 02:38:05;;;;;;;0.63;0.40;;;14.10;99.90;;;;;;5021102;28;20202;-85
2023/08/08 02:40:33;;;;;;;0.65;0.52;;;14.10;99.90;;;;;;5030114;28;20202;-86
2023/08/08 02:43:01;;;;;;;0.75;0.60;;;14.20;99.90;;;;;;5028140;28;20193;-87
2023/08/08 02:45:28;;;;;;;1.27;0.65;;;14.20;99.90;;;;;;5031807;28;20735;-86
2023/08/08 02:47:56;;;;;;;1.77;0.60;;;14.00;99.90;;;;;;5028805;28;20569;-86
2023/08/08 02:50:24;;;;;;;0.82;0.70;;;14.10;99.90;;;;;;5009696;28;20267;-85
2023/08/08 02:52:51;;;;;;;0.82;0.65;;;14.10;99.90;;;;;;5033918;28;20185;-84
2023/08/08 02:55:22;;;;;;;1.10;0.70;;;14.00;99.90;;;;;;5028064;28;20229;-86
2023/08/08 02:57:51;;;;;;;2.72;1.00;;;13.90;99.90;;;;;;5028524;28;20190;-87
2023/08/08 03:00:19;;;;;;;2.40;0.65;;;13.90;99.90;;;;;;5031348;28;20186;-85
2023/08/08 03:02:50;;;;;;;2.00;1.00;;;13.80;99.90;;;;;;5031005;28;20193;-87
2023/08/08 03:05:17;;;;;;;1.15;0.80;;;13.80;99.90;;;;;;5030671;28;20205;-85
2023/08/08 03:07:45;;;;;;;2.33;0.80;;;14.00;99.90;;;;;;5029369;28;20190;-86
2023/08/08 03:10:13;;;;;;;0.88;0.80;;;14.10;99.90;;;;;;5016770;28;20342;-86
2023/08/08 03:12:42;;;;;;;1.48;1.15;;;13.90;99.90;;;;;;5015466;28;20522;-87
2023/08/08 03:15:11;;;;;;;1.77;0.95;;;13.80;99.90;;;;;;5029438;28;20182;-86
2023/08/08 03:17:39;;;;;;;2.22;0.90;;;13.90;99.90;;;;;;5011186;28;20209;-86
2023/08/08 03:20:08;;;;;;;1.92;1.00;;;13.90;99.90;;;;;;5020589;28;20193;-85
2023/08/08 03:22:36;;;;;;;1.42;1.10;;;13.80;99.90;;;;;;5029359;28;20223;-86
2023/08/08 03:25:04;;;;;;;0.73;0.73;;;13.80;99.90;;;;;;5031997;28;20197;-86
2023/08/08 03:27:32;;;;;;;0.80;0.70;;;13.70;99.90;;;;;;5024756;28;20179;-85
2023/08/08 03:30:00;;;;;;;2.97;0.95;;;13.90;99.90;;;;;;5030292;28;20256;-86
2023/08/08 03:32:32;;;;;;;1.33;0.90;;;14.00;99.90;;;;;;5026859;28;20198;-85
2023/08/08 03:35:00;;;;;;;1.95;0.90;;;13.90;99.90;;;;;;5026970;28;20911;-85
2023/08/08 03:37:28;;;;;;;1.25;1.05;;;14.00;99.90;;;;;;5013306;28;20292;-85
2023/08/08 03:39:56;;;;;;;2.25;1.27;;;13.90;99.90;;;;;;5026603;28;20197;-87
2023/08/08 03:42:24;;;;;;;3.97;1.20;;;13.80;99.90;;;;;;5020640;28;20269;-86
2023/08/08 03:44:51;;;;;;;2.13;1.10;;;13.70;99.90;;;;;;5027300;28;20195;-86
2023/08/08 03:47:19;;;;;;;3.10;1.42;;;13.70;99.90;;;;;;5022154;28;20201;-85
2023/08/08 03:49:47;;;;;;;3.63;1.08;;;13.80;99.90;;;;;;5038134;28;20256;-85
2023/08/08 03:52:14;;;;;;;2.67;1.27;;;13.80;99.90;;;;;;4998712;28;20189;-86
2023/08/08 03:54:43;;;;;;;2.72;1.38;;;13.70;99.90;;;;;;5032367;28;20185;-87
2023/08/08 03:57:11;;;;;;;2.75;1.50;;;13.80;99.90;;;;;;5020852;28;20705;-86
2023/08/08 03:59:40;;;;;;;2.95;1.27;;;13.70;99.90;;;;;;5032550;28;20277;-85
2023/08/08 04:02:07;;;;;;;4.10;1.70;;;13.60;99.90;;;;;;5027112;28;20190;-85
2023/08/08 04:04:35;;;;;;;4.30;1.73;;;13.60;99.90;;;;;;5009631;28;20199;-85
2023/08/08 04:07:02;;;;;;;5.50;1.83;;;13.60;99.90;;;;;;5040470;28;20190;-86
2023/08/08 04:09:30;;;;;;;4.63;1.75;;;13.60;99.90;;;;;;5029044;28;20209;-87
2023/08/08 04:11:58;;;;;;;5.47;1.85;;;13.60;99.90;;;;;;5021869;28;20673;-86
2023/08/08 04:14:26;;;;;;;4.53;2.10;;;13.80;99.90;;;;;;5037369;28;20185;-85
2023/08/08 04:16:53;;;;;;;4.80;2.00;;;13.70;99.90;;;;;;5028914;28;20191;-86
2023/08/08 04:19:21;;;;;;;6.00;2.17;;;13.60;99.90;;;;;;5028379;28;20222;-86
2023/08/08 04:21:48;;;;;;;3.85;2.13;;;13.50;99.90;;;;;;5024367;28;20191;-86
2023/08/08 04:24:16;;;;;;;7.25;2.38;;;13.60;99.90;;;;;;5028082;28;20272;-86
2023/08/08 04:26:43;;;;;;;9.90;2.42;;;13.70;99.90;;;;;;5029185;28;20225;-86
2023/08/08 04:29:11;;;;;;;5.68;2.00;;;13.70;99.90;;;;;;5025555;28;20210;-86
2023/08/08 04:31:38;;;;;;;4.40;2.30;;;13.70;99.90;;;;;;5023521;28;20384;-84
2023/08/08 04:34:06;;;;;;;6.55;2.03;;;13.70;99.90;;;;;;5023393;28;20679;-85
2023/08/08 04:36:34;;;;;;;5.90;2.70;;;13.70;99.90;;;;;;5024233;28;20190;-84
2023/08/08 04:39:02;;;;;;;5.40;2.33;;;13.60;99.90;;;;;;5010362;28;20190;-85
2023/08/08 04:41:31;;;;;;;8.02;2.70;;;13.60;99.90;;;;;;5022771;28;20197;-87
2023/08/08 04:43:59;;;;;;;10.57;3.60;;;13.50;99.90;;;;;;5026783;28;20201;-85
2023/08/08 04:46:27;;;;;;;5.28;2.13;;;13.50;99.90;;;;;;5012939;28;20236;-85
2023/08/08 04:48:55;;;;;;;4.40;1.98;;;13.50;99.90;;;;;;5012214;28;20221;-85
2023/08/08 04:51:25;;;;;;;6.07;2.55;;;13.60;99.90;;;;;;5019030;28;20202;-86
2023/08/08 04:53:52;;;;;;;7.25;2.80;;;13.40;99.90;;;;;;5027202;28;20181;-85
2023/08/08 04:56:20;;;;;;;7.28;2.90;;;13.40;99.90;;;;;;5008005;28;20183;-87
2023/08/08 04:58:48;;;;;;;7.80;1.95;;;13.50;99.90;;;;;;5024637;28;20204;-85
2023/08/08 05:01:17;;;;;;;8.98;2.63;;;13.50;99.90;;;;;;5022071;28;20203;-88
2023/08/08 05:03:45;;;;;;;6.53;2.08;;;13.50;99.90;;;;;;5016972;28;20201;-84
2023/08/08 05:06:12;;;;;;;5.90;2.70;;;13.40;99.90;;;;;;5033159;28;20334;-85
2023/08/08 05:08:40;;;;;;;5.40;2.63;;;13.50;99.90;;;;;;5030717;28;20214;-85
2023/08/08 05:11:07;;;;;;;8.75;2.70;;;13.50;99.90;;;;;;5032361;28;20307;-85
2023/08/08 05:13:35;;;;;;;9.93;2.53;;;13.50;99.90;;;;;;5030978;28;20186;-85
2023/08/08 05:16:03;;;;;;;5.18;2.03;;;13.50;99.90;;;;;;5027027;28;20190;-86
2023/08/08 05:18:30;;;;;;;7.10;2.55;;;13.40;99.90;;;;;;5021655;28;20185;-86
2023/08/08 05:20:58;;;;;;;4.57;2.13;;;13.50;99.90;;;;;;5028133;28;20217;-86
2023/08/08 05:23:25;;;;;;;5.07;2.55;;;13.40;99.90;;;;;;5034180;28;20222;-85
2023/08/08 05:25:53;;;;;;;6.45;2.53;;;13.40;99.90;;;;;;5038885;28;20205;-85
2023/08/08 05:28:20;;;;;;;6.25;2.60;;;13.30;99.90;;;;;;5035722;28;20185;-87
2023/08/08 05:30:48;;;;;;;3.30;1.95;;;13.40;99.90;;;;;;5034598;28;20667;-87
2023/08/08 05:33:16;;;;;;;2.97;1.90;;;13.30;99.90;;;;;;5049277;28;20903;-86
2023/08/08 05:35:43;;;;;;;4.05;2.00;;;13.30;99.90;;;;;;5033841;28;20204;-86
2023/08/08 05:38:11;;;;;;;6.50;2.20;;;13.40;99.90;;;;;;5035163;28;20265;-87
2023/08/08 05:40:38;;;;;;;4.57;1.80;;;13.40;99.90;;;;;;5034368;28;20194;-86
2023/08/08 05:43:06;;;;;;;6.97;2.35;;;13.40;99.90;;;;;;5039771;28;20217;-86
2023/08/08 05:45:34;;;;;;;5.40;2.45;;;13.40;99.90;;;;;;5038625;28;20189;-84
2023/08/08 05:48:01;;;;;;;4.22;1.60;;;13.50;99.90;;;;;;5016926;28;20217;-87
2023/08/08 05:50:29;;;;;;;6.22;2.03;;;13.50;99.90;;;;;;5036125;28;20206;-86
2023/08/08 05:52:56;;;;;;;6.93;2.35;;;13.40;99.90;;;;;;5019324;28;20282;-87
2023/08/08 05:55:24;;;;;;;4.88;2.25;;;13.40;99.90;;;;;;5038132;28;20194;-84
2023/08/08 05:57:52;;;;;;;5.03;2.10;;;13.50;99.90;;;;;;5026015;28;20824;-86
2023/08/08 06:00:19;;;;;;;4.75;2.13;;;13.60;99.90;;;;;;5028784;28;20187;-86
2023/08/08 06:02:47;;;;;;;4.55;2.00;;;13.60;99.90;;;;;;5022161;28;20650;-86
2023/08/08 06:05:17;;;;;;;3.80;1.90;;;13.50;99.90;;;;;;5042720;28;20185;-86
2023/08/08 06:07:44;;;;;;;5.55;2.33;;;13.60;99.90;;;;;;5036087;28;20201;-85
2023/08/08 06:10:12;;;;;;;6.50;2.15;;;13.60;99.90;;;;;;5038781;28;20237;-84
2023/08/08 06:12:39;;;;;;;4.50;2.13;;;13.50;99.90;;;;;;5030049;28;20290;-87
2023/08/08 06:15:08;;;;;;;6.03;2.85;;;13.50;99.90;;;;;;5031857;28;20186;-85
2023/08/08 06:17:35;;;;;;;6.55;2.28;;;13.40;99.90;;;;;;5029459;28;20206;-85
2023/08/08 06:20:04;;;;;;;5.55;2.65;;;13.50;99.90;;;;;;5036987;28;20212;-85
2023/08/08 06:22:35;;;;;;;4.60;2.55;;;13.50;99.90;;;;;;5036493;28;20717;-86
2023/08/08 06:25:03;;;;;;;7.80;3.22;;;13.40;99.90;;;;;;5028261;28;20189;-84
2023/08/08 06:27:31;;;;;;;6.88;3.13;;;13.30;99.90;;;;;;5001606;28;20198;-85
2023/08/08 06:30:02;;;;;;;6.85;3.00;;;13.50;99.90;;;;;;5009890;28;20215;-85
2023/08/08 06:32:30;;;;;;;8.65;2.45;;;13.40;99.90;;;;;;5026163;28;20197;-85
2023/08/08 06:34:58;;;;;;;9.32;3.08;;;13.50;99.90;;;;;;5034547;28;20182;-85
2023/08/08 06:37:25;;;;;;;8.50;2.85;;;13.50;99.90;;;;;;5038116;28;20186;-87
2023/08/08 06:39:53;;;;;;;7.88;2.78;;;13.60;99.90;;;;;;5035637;28;20647;-87
2023/08/08 06:42:20;;;;;;;10.15;3.30;;;13.50;99.90;;;;;;5031991;28;20190;-86
2023/08/08 06:44:55;;;;;;;8.60;3.22;;;13.60;99.90;;;;;;5025641;28;20282;-85
2023/08/08 06:47:23;;;;;;;7.82;2.53;;;13.50;99.90;;;;;;5028504;28;20277;-85
2023/08/08 06:49:51;;;;;;;7.40;2.70;;;13.60;99.90;;;;;;5030499;28;20650;-85
2023/08/08 06:52:18;;;;;;;5.72;2.63;;;13.60;99.90;;;;;;5029017;28;20189;-85
2023/08/08 06:54:51;;;;;;;11.90;3.38;;;13.60;99.90;;;;;;5024911;28;20236;-87
2023/08/08 06:57:32;;;;;;;7.10;2.75;;;13.50;99.90;;;;;;5008748;28;20943;-87
2023/08/08 07:00:06;;;;;;;5.75;2.25;;;13.60;99.90;;;;;;5002888;28;20200;-86
2023/08/08 07:02:41;;;;;;;9.15;2.70;;;13.60;99.90;;;;;;5021406;28;20205;-86
2023/08/08 07:05:10;;;;;;;5.65;2.47;;;13.50;99.90;;;;;;5023986;28;20188;-86
2023/08/08 07:07:38;;;;;;;6.88;2.15;;;13.60;99.90;;;;;;5033855;28;20510;-85
2023/08/08 07:10:09;;;;;;;6.45;2.60;;;13.60;99.90;;;;;;5031348;28;20216;-85
2023/08/08 07:12:37;;;;;;;6.95;2.78;;;13.60;99.90;;;;;;5028102;28;20186;-87
2023/08/08 07:15:07;;;;;;;7.43;2.65;;;13.60;99.90;;;;;;5040448;28;20189;-86
2023/08/08 07:17:35;;;;;;;7.93;2.58;;;13.50;99.90;;;;;;5032199;28;20256;-87
2023/08/08 07:20:03;;;;;;;3.88;2.50;;;13.60;99.90;;;;;;5033755;28;20220;-87
2023/08/08 07:22:32;;;;;;;7.85;2.72;;;13.50;99.90;;;;;;5034491;28;20299;-87
2023/08/08 07:25:00;;;;;;;4.82;2.47;;;13.60;99.90;;;;;;5032584;28;20205;-87
2023/08/08 07:27:27;;;;;;;7.65;2.72;;;13.70;99.90;;;;;;5028315;28;20190;-86
2023/08/08 07:29:55;;;;;;;5.35;2.17;;;13.60;99.90;;;;;;5026355;28;20202;-86
2023/08/08 07:32:24;;;;;;;8.60;2.95;;;13.50;99.90;;;;;;5003272;28;20198;-86
2023/08/08 07:34:58;;;;;;;6.82;2.65;;;13.50;99.90;;;;;;5024896;28;20280;-87
2023/08/08 07:37:27;;;;;;;8.82;2.85;;;13.50;99.90;;;;;;5028327;28;20705;-87
2023/08/08 07:39:56;;;;;;;10.05;2.90;;;13.60;99.90;;;;;;5027663;28;20195;-87
2023/08/08 07:42:25;;;;;;;8.68;3.03;;;13.70;99.90;;;;;;5025937;28;20190;-87
2023/08/08 07:44:55;;;;;;;8.07;3.05;;;13.80;99.90;;;;;;5020254;28;20190;-86
2023/08/08 07:47:25;;;;;;;11.23;3.08;;;13.60;99.90;;;;;;5022504;28;20285;-86
2023/08/08 07:49:53;;;;;;;7.30;2.88;;;13.60;99.90;;;;;;5027838;28;20210;-87
2023/08/08 07:52:25;;;;;;;4.28;2.55;;;13.60;99.90;;;;;;5033800;28;20222;-86
2023/08/08 07:55:10;;;;;;;9.75;3.25;;;13.70;99.90;;;;;;5015268;28;20189;-83
2023/08/08 07:57:38;;;;;;;6.47;2.85;;;13.60;99.90;;;;;;5029602;28;20185;-85
2023/08/08 08:00:18;;;;;;;6.55;2.30;;;13.70;99.90;;;;;;5007166;28;20663;-87
2023/08/08 08:02:47;;;;;;;5.97;2.45;;;13.80;99.90;;;;;;5016312;28;20265;-85
2023/08/08 08:05:16;;;;;;;7.03;2.50;;;13.60;99.90;;;;;;5037516;28;20186;-86
2023/08/08 08:07:45;;;;;;;6.18;2.50;;;13.50;99.90;;;;;;5020724;28;20199;-87
2023/08/08 08:10:13;;;;;;;8.70;2.78;;;13.80;99.90;;;;;;5031943;28;20210;-86
2023/08/08 08:12:41;;;;;;;11.10;2.42;;;13.90;99.90;;;;;;5021417;28;20546;-86
2023/08/08 08:15:16;;;;;;;10.73;2.90;;;14.00;99.90;;;;;;5029204;28;20190;-84
2023/08/08 08:17:47;;;;;;;7.43;3.15;;;14.00;99.90;;;;;;5003588;28;20285;-86
2023/08/08 08:20:15;;;;;;;8.32;2.92;;;14.10;99.90;;;;;;5028733;28;20241;-85
2023/08/08 08:22:43;;;;;;;9.77;3.03;;;14.10;99.90;;;;;;5029124;28;20233;-88
2023/08/08 08:25:11;;;;;;;11.25;2.80;;;14.00;99.90;;;;;;5023043;28;20186;-85
2023/08/08 08:27:40;;;;;;;7.38;2.88;;;13.90;99.90;;;;;;5026345;28;20190;-85
2023/08/08 08:30:11;;;;;;;10.98;3.17;;;14.00;99.90;;;;;;5026880;28;20210;-87
2023/08/08 08:32:48;;;;;;;9.40;2.58;;;14.10;99.90;;;;;;5007296;28;20246;-86
2023/08/08 08:35:19;;;;;;;10.98;3.13;;;14.20;99.90;;;;;;5028192;28;20188;-86
2023/08/08 08:40:50;;;;;;;6.22;2.60;;;14.30;99.90;;;;;;5029216;28;20188;-86
2023/08/08 08:43:17;;;;;;;12.00;3.03;;;14.30;99.90;;;;;;5023655;28;20213;-84
2023/08/08 08:45:51;;;;;;;7.18;2.22;;;14.30;99.90;;;;;;5026367;28;20851;-85
2023/08/08 08:48:20;;;;;;;8.48;2.80;;;14.40;99.90;;;;;;5029043;28;20223;-87
2023/08/08 08:50:49;;;;;;;6.95;2.65;;;14.30;99.90;;;;;;5029159;28;20194;-87
2023/08/08 08:53:17;;;;;;;8.75;2.58;;;14.40;99.90;;;;;;5022999;28;20193;-85
2023/08/08 08:55:46;;;;;;;12.82;3.20;;;14.40;99.90;;;;;;5030130;28;20655;-86
2023/08/08 08:58:16;;;;;;;8.75;3.00;;;14.40;99.90;;;;;;5030870;28;20185;-84
2023/08/08 09:00:47;;;;;;;7.28;2.58;;;14.40;99.90;;;;;;5028795;28;20197;-84
2023/08/08 09:03:16;;;;;;;7.32;2.17;;;14.40;99.90;;;;;;5022894;28;20544;-85
2023/08/08 09:05:44;;;;;;;10.95;2.42;;;14.40;99.90;;;;;;5013691;28;20201;-85
2023/08/08 09:08:13;;;;;;;12.75;2.53;;;14.50;99.90;;;;;;5017741;28;20197;-86
2023/08/08 09:10:41;;;;;;;9.05;2.78;;;14.50;99.90;;;;;;5039105;28;20221;-85
2023/08/08 09:13:08;;;;;;;8.98;3.15;;;14.50;99.90;;;;;;5026370;28;20250;-85
2023/08/08 09:15:36;;;;;;;9.80;2.80;;;14.50;99.90;;;;;;5023292;28;20186;-85
2023/08/08 09:18:03;;;;;;;13.05;2.72;;;14.50;99.90;;;;;;5024502;28;20246;-85
2023/08/08 09:20:32;;;;;;;8.95;2.33;;;14.40;99.90;;;;;;5039010;28;20647;-86
2023/08/08 09:22:59;;;;;;;10.07;3.08;;;14.50;99.90;;;;;;5031739;28;20300;-84
2023/08/08 09:25:27;;;;;;;6.47;2.50;;;14.60;99.90;;;;;;5035397;28;20659;-86
2023/08/08 09:27:55;;;;;;;8.27;2.78;;;14.90;99.90;;;;;;5034748;28;20206;-85
2023/08/08 09:30:23;;;;;;;10.45;2.45;;;15.00;99.90;;;;;;5030682;28;20233;-86
2023/08/08 09:32:52;;;;;;;7.38;2.42;;;15.00;99.90;;;;;;5021493;28;20256;-86
2023/08/08 09:35:23;;;;;;;8.18;2.80;;;15.00;99.90;;;;;;5010678;28;20266;-87
2023/08/08 09:37:54;;;;;;;4.97;2.20;;;15.10;99.90;;;;;;5027345;28;20186;-86
2023/08/08 09:40:23;;;;;;;9.05;2.33;;;15.20;99.90;;;;;;5027892;28;20193;-86
2023/08/08 09:42:53;;;;;;;6.65;2.30;;;15.30;99.90;;;;;;5005531;28;20189;-86
2023/08/08 09:45:22;;;;;;;4.00;2.15;;;15.40;99.90;;;;;;5027847;28;20197;-83
2023/08/08 09:47:52;;;;;;;8.43;2.38;;;15.50;99.90;;;;;;5024005;28;20433;-85
2023/08/08 09:50:26;;;;;;;7.30;2.85;;;15.50;99.90;;;;;;5010759;28;20557;-84
2023/08/08 09:53:03;;;;;;;8.70;2.22;;;15.80;99.90;;;;;;5019546;28;20205;-85
2023/08/08 09:55:40;;;;;;;7.18;2.03;;;15.70;99.90;;;;;;5017517;28;20568;-87
2023/08/08 09:58:31;;;;;;;8.88;2.63;;;15.80;99.90;;;;;;5043533;27;20193;-87
2023/08/08 10:01:00;;;;;;;7.00;2.50;;;16.00;99.90;;;;;;5015685;28;20190;-87
2023/08/08 10:03:29;;;;;;;9.15;2.25;;;15.90;99.90;;;;;;5020672;28;20206;-87
2023/08/08 10:05:57;;;;;;;4.53;1.90;;;15.80;99.90;;;;;;5033248;28;20190;-87
2023/08/08 10:08:24;;;;;;;7.85;2.05;;;15.70;99.90;;;;;;5023480;28;20565;-87
2023/08/08 10:10:52;;;;;;;3.75;1.60;;;15.60;99.90;;;;;;5029967;28;20218;-86
2023/08/08 10:13:25;;;;;;;7.65;1.90;;;15.60;99.90;;;;;;5048533;28;20182;-86
2023/08/08 10:15:55;;;;;;;10.07;1.80;;;15.50;99.90;;;;;;5028236;28;20193;-86
2023/08/08 10:18:24;;;;;;;5.28;1.90;;;15.40;99.90;;;;;;5026674;28;20190;-88
2023/08/08 10:20:53;;;;;;;5.80;2.50;;;15.40;99.90;;;;;;5025823;28;20265;-86
2023/08/08 10:23:21;;;;;;;8.10;2.50;;;15.40;99.90;;;;;;5014552;28;20234;-87
2023/08/08 10:25:52;;;;;;;9.50;2.70;;;15.50;99.90;;;;;;5032045;28;20288;-88
2023/08/08 10:28:21;;;;;;;5.53;2.28;;;15.50;99.90;;;;;;5041188;28;20190;-87
2023/08/08 10:31:08;;;;;;;5.32;2.38;;;15.50;99.90;;;;;;5021702;28;20203;-87
2023/08/08 10:33:43;;;;;;;8.70;2.83;;;15.40;99.90;;;;;;5020659;28;20182;-88
2023/08/08 10:36:15;;;;;;;5.90;2.28;;;15.40;99.90;;;;;;5022244;28;20198;-86
2023/08/08 10:38:54;;;;;;;10.50;3.65;;;15.30;99.90;;;;;;5022861;28;20189;-86
2023/08/08 10:41:26;;;;;;;12.73;3.22;;;15.30;99.90;;;;;;5012135;28;20675;-87
2023/08/08 10:43:58;;;;;;;7.30;3.05;;;15.30;99.90;;;;;;5017324;28;20244;-86
2023/08/08 10:46:32;;;;;;;11.10;2.97;;;15.40;99.90;;;;;;5026027;28;20723;-86
2023/08/08 10:49:02;;;;;;;6.63;2.88;;;15.70;99.90;;;;;;5024105;28;20186;-86
2023/08/08 10:51:42;;;;;;;9.88;3.03;;;15.90;99.90;;;;;;5027991;28;20223;-88
2023/08/08 10:54:19;;;;;;;7.60;2.53;;;16.30;99.90;;;;;;5023571;28;20190;-86
2023/08/08 10:56:55;;;;;;;8.85;2.53;;;16.50;99.90;;;;;;5026464;28;20557;-88
2023/08/08 10:59:36;;;;;;;7.25;2.53;;;16.50;99.90;;;;;;5029914;28;20217;-87
2023/08/08 11:02:06;;;;;;;6.95;2.55;;;16.70;99.90;;;;;;5026867;28;20229;-86
2023/08/08 11:04:35;;;;;;;6.95;2.63;;;16.80;99.90;;;;;;5024733;28;20671;-88
2023/08/08 11:07:04;;;;;;;5.88;2.35;;;16.90;99.90;;;;;;5023528;28;20226;-86
2023/08/08 11:09:32;;;;;;;5.80;2.05;;;16.90;99.90;;;;;;5027458;28;20177;-87
2023/08/08 11:12:00;;;;;;;9.52;2.38;;;17.00;99.90;;;;;;5019493;28;20202;-87
2023/08/08 11:14:29;;;;;;;4.15;2.17;;;16.90;99.90;;;;;;5020823;28;20376;-87
2023/08/08 11:16:57;;;;;;;7.93;2.63;;;16.70;99.90;;;;;;5029121;28;20187;-88
2023/08/08 11:19:28;;;;;;;7.88;2.50;;;16.60;99.90;;;;;;5025248;28;20178;-87
2023/08/08 11:21:57;;;;;;;6.38;2.50;;;16.50;99.90;;;;;;5026255;28;20194;-87
2023/08/08 11:24:26;;;;;;;6.75;2.03;;;16.60;99.90;;;;;;5010335;28;20290;-88
2023/08/08 11:26:59;;;;;;;6.22;2.70;;;17.00;99.90;;;;;;5030188;28;20671;-87
2023/08/08 11:29:30;;;;;;;3.47;2.00;;;17.30;99.90;;;;;;5032233;28;20194;-88
2023/08/08 11:32:02;;;;;;;5.80;2.53;;;17.00;99.90;;;;;;5046754;28;20621;-87
2023/08/08 11:34:33;;;;;;;4.28;2.35;;;16.90;99.90;;;;;;5018392;28;20659;-86
2023/08/08 11:37:01;;;;;;;6.20;2.38;;;16.80;99.90;;;;;;5035194;28;20721;-87
2023/08/08 11:39:29;;;;;;;5.75;2.25;;;17.00;99.90;;;;;;5035823;28;20194;-87
2023/08/08 11:41:58;;;;;;;4.40;1.77;;;17.00;99.90;;;;;;5031316;28;20231;-85
2023/08/08 11:44:31;;;;;;;7.95;1.73;;;17.30;99.90;;;;;;5029346;28;20256;-88
2023/08/08 11:47:25;;;;;;;5.03;1.92;;;17.40;99.90;;;;;;5018357;28;20187;-87
2023/08/08 11:49:54;;;;;;;4.20;1.90;;;17.60;99.90;;;;;;5025892;28;20218;-85
2023/08/08 11:52:24;;;;;;;5.35;2.17;;;17.80;99.90;;;;;;5028892;28;20173;-86
2023/08/08 11:55:26;;;;;;;8.02;2.60;;;17.70;99.90;;;;;;5019135;28;20198;-86
2023/08/08 11:57:59;;;;;;;8.45;2.40;;;17.90;99.90;;;;;;5030168;28;20197;-87
2023/08/08 12:00:32;;;;;;;6.70;2.03;;;18.10;99.90;;;;;;5044147;28;20200;-87
2023/08/08 12:03:04;;;;;;;3.70;1.88;;;18.00;99.90;;;;;;5041000;28;20196;-86
2023/08/08 12:05:38;;;;;;;5.95;1.80;;;17.90;99.90;;;;;;5033282;28;20198;-87
2023/08/08 12:08:06;;;;;;;3.65;2.00;;;17.60;99.90;;;;;;5035860;28;20272;-87
2023/08/08 12:10:34;;;;;;;6.03;1.90;;;17.40;99.90;;;;;;5017351;28;20210;-88
2023/08/08 12:13:02;;;;;;;4.18;1.75;;;17.70;99.90;;;;;;5043918;28;20190;-86
2023/08/08 12:15:34;;;;;;;4.72;2.38;;;17.70;99.90;;;;;;5037422;28;20280;-86
2023/08/08 12:18:03;;;;;;;7.55;2.20;;;17.70;99.90;;;;;;5040865;28;20193;-88
2023/08/08 12:20:32;;;;;;;5.03;2.08;;;17.60;99.90;;;;;;5036241;28;20583;-85
2023/08/08 12:23:00;;;;;;;7.07;2.15;;;17.40;99.90;;;;;;5038516;28;20221;-88
2023/08/08 12:25:27;;;;;;;8.13;2.33;;;17.30;99.90;;;;;;5035700;28;20314;-88
2023/08/08 12:27:55;;;;;;;5.22;1.80;;;17.30;99.90;;;;;;5039028;28;20232;-87
2023/08/08 12:30:23;;;;;;;9.05;2.03;;;17.10;99.90;;;;;;5022913;28;20832;-86
2023/08/08 12:32:51;;;;;;;3.15;1.85;;;17.00;99.90;;;;;;5021247;28;20375;-88
2023/08/08 12:35:20;;;;;;;6.35;1.60;;;17.00;99.90;;;;;;5036855;28;20264;-88
2023/08/08 12:37:47;;;;;;;6.97;1.63;;;17.10;99.90;;;;;;5037764;28;20190;-86
2023/08/08 12:40:15;;;;;;;6.50;1.63;;;17.20;99.90;;;;;;5040303;28;20276;-87
2023/08/08 12:42:42;;;;;;;6.97;2.10;;;17.30;99.90;;;;;;5029028;28;20190;-85
2023/08/08 12:45:10;;;;;;;11.13;2.90;;;17.60;99.90;;;;;;5037530;28;20208;-87
2023/08/08 12:47:38;;;;;;;5.95;1.90;;;17.90;99.90;;;;;;5035915;28;20236;-85
2023/08/08 12:50:07;;;;;;;5.72;1.88;;;17.70;99.90;;;;;;5037901;28;20239;-86
2023/08/08 12:52:35;;;;;;;9.68;2.13;;;17.60;99.90;;;;;;5046863;28;20726;-86
2023/08/08 12:55:03;;;;;;;7.35;1.38;;;17.80;99.90;;;;;;5037559;28;20194;-88
2023/08/08 12:57:31;;;;;;;7.03;2.05;;;18.00;99.90;;;;;;5039112;28;20253;-85
2023/08/08 12:59:59;;;;;;;5.35;1.92;;;18.30;99.90;;;;;;5034416;28;20186;-86